sensor_id;sensor_type;location;lat;lon;timestamp;P1;durP1;ratioP1;P2;durP2;ratioP2
6259;SDS011;3163;51.516;4.000;2022-07-06T00:00:45;0.53;;;0.53;;
6259;SDS011;3163;51.516;4.000;2022-07-06T00:03:11;2.13;;;0.60;;
6259;SDS011;3163;51.516;4.000;2022-07-06T00:05:37;0.40;;;0.40;;
6259;SDS011;3163;51.516;4.000;2022-07-06T00:08:03;0.63;;;0.50;;
6259;SDS011;3163;51.516;4.000;2022-07-06T00:10:29;0.60;;;0.60;;
6259;SDS011;3163;51.516;4.000;2022-07-06T00:12:55;0.50;;;0.50;;
6259;SDS011;3163;51.516;4.000;2022-07-06T00:15:21;0.70;;;0.70;;
6259;SDS011;3163;51.516;4.000;2022-07-06T00:17:47;0.60;;;0.60;;
6259;SDS011;3163;51.516;4.000;2022-07-06T00:20:13;0.40;;;0.40;;
6259;SDS011;3163;51.516;4.000;2022-07-06T00:22:38;0.60;;;0.60;;
6259;SDS011;3163;51.516;4.000;2022-07-06T00:25:05;0.60;;;0.60;;
6259;SDS011;3163;51.516;4.000;2022-07-06T00:27:31;0.47;;;0.47;;
6259;SDS011;3163;51.516;4.000;2022-07-06T00:29:57;0.60;;;0.45;;
6259;SDS011;3163;51.516;4.000;2022-07-06T00:32:23;0.77;;;0.53;;
6259;SDS011;3163;51.516;4.000;2022-07-06T00:34:50;0.33;;;0.33;;
6259;SDS011;3163;51.516;4.000;2022-07-06T00:37:16;1.60;;;0.70;;
6259;SDS011;3163;51.516;4.000;2022-07-06T00:39:42;0.40;;;0.40;;
6259;SDS011;3163;51.516;4.000;2022-07-06T00:42:08;1.40;;;0.60;;
6259;SDS011;3163;51.516;4.000;2022-07-06T00:44:34;1.30;;;0.50;;
6259;SDS011;3163;51.516;4.000;2022-07-06T00:47:00;0.40;;;0.40;;
6259;SDS011;3163;51.516;4.000;2022-07-06T00:49:26;0.50;;;0.50;;
6259;SDS011;3163;51.516;4.000;2022-07-06T00:52:11;0.50;;;0.50;;
6259;SDS011;3163;51.516;4.000;2022-07-06T00:54:37;0.47;;;0.47;;
6259;SDS011;3163;51.516;4.000;2022-07-06T00:57:05;0.50;;;0.50;;
6259;SDS011;3163;51.516;4.000;2022-07-06T00:59:31;0.60;;;0.60;;
6259;SDS011;3163;51.516;4.000;2022-07-06T01:01:57;1.93;;;0.63;;
6259;SDS011;3163;51.516;4.000;2022-07-06T01:04:23;0.50;;;0.43;;
6259;SDS011;3163;51.516;4.000;2022-07-06T01:06:49;0.37;;;0.37;;
6259;SDS011;3163;51.516;4.000;2022-07-06T01:09:16;0.60;;;0.40;;
6259;SDS011;3163;51.516;4.000;2022-07-06T01:11:42;0.93;;;0.60;;
6259;SDS011;3163;51.516;4.000;2022-07-06T01:14:08;0.33;;;0.33;;
6259;SDS011;3163;51.516;4.000;2022-07-06T01:16:34;1.07;;;0.50;;
6259;SDS011;3163;51.516;4.000;2022-07-06T01:19:00;0.50;;;0.50;;
6259;SDS011;3163;51.516;4.000;2022-07-06T01:21:26;0.50;;;0.50;;
6259;SDS011;3163;51.516;4.000;2022-07-06T01:23:52;0.60;;;0.50;;
6259;SDS011;3163;51.516;4.000;2022-07-06T01:26:19;0.40;;;0.40;;
6259;SDS011;3163;51.516;4.000;2022-07-06T01:28:46;2.23;;;0.50;;
6259;SDS011;3163;51.516;4.000;2022-07-06T01:31:15;0.47;;;0.47;;
6259;SDS011;3163;51.516;4.000;2022-07-06T01:33:41;0.50;;;0.50;;
6259;SDS011;3163;51.516;4.000;2022-07-06T01:36:08;0.60;;;0.60;;
6259;SDS011;3163;51.516;4.000;2022-07-06T01:38:42;0.40;;;0.40;;
6259;SDS011;3163;51.516;4.000;2022-07-06T01:41:08;0.53;;;0.50;;
6259;SDS011;3163;51.516;4.000;2022-07-06T01:43:34;0.53;;;0.53;;
6259;SDS011;3163;51.516;4.000;2022-07-06T01:46:01;0.40;;;0.40;;
6259;SDS011;3163;51.516;4.000;2022-07-06T01:48:27;0.50;;;0.50;;
6259;SDS011;3163;51.516;4.000;2022-07-06T01:50:53;1.40;;;0.67;;
6259;SDS011;3163;51.516;4.000;2022-07-06T01:53:18;0.43;;;0.40;;
6259;SDS011;3163;51.516;4.000;2022-07-06T01:55:44;0.50;;;0.50;;
6259;SDS011;3163;51.516;4.000;2022-07-06T01:58:10;0.43;;;0.43;;
6259;SDS011;3163;51.516;4.000;2022-07-06T02:00:36;0.80;;;0.40;;
6259;SDS011;3163;51.516;4.000;2022-07-06T02:03:02;0.43;;;0.43;;
6259;SDS011;3163;51.516;4.000;2022-07-06T02:05:28;0.37;;;0.33;;
6259;SDS011;3163;51.516;4.000;2022-07-06T02:07:54;0.57;;;0.40;;
6259;SDS011;3163;51.516;4.000;2022-07-06T02:10:20;2.20;;;0.60;;
6259;SDS011;3163;51.516;4.000;2022-07-06T02:12:46;0.50;;;0.50;;
6259;SDS011;3163;51.516;4.000;2022-07-06T02:15:12;0.30;;;0.30;;
6259;SDS011;3163;51.516;4.000;2022-07-06T02:17:38;1.37;;;0.77;;
6259;SDS011;3163;51.516;4.000;2022-07-06T02:20:05;0.47;;;0.47;;
6259;SDS011;3163;51.516;4.000;2022-07-06T02:22:31;0.90;;;0.60;;
6259;SDS011;3163;51.516;4.000;2022-07-06T02:24:57;0.40;;;0.40;;
6259;SDS011;3163;51.516;4.000;2022-07-06T02:27:23;0.60;;;0.60;;
6259;SDS011;3163;51.516;4.000;2022-07-06T02:29:50;0.53;;;0.53;;
6259;SDS011;3163;51.516;4.000;2022-07-06T02:32:16;0.47;;;0.40;;
6259;SDS011;3163;51.516;4.000;2022-07-06T02:34:42;0.73;;;0.60;;
6259;SDS011;3163;51.516;4.000;2022-07-06T02:37:08;0.50;;;0.50;;
6259;SDS011;3163;51.516;4.000;2022-07-06T02:39:35;0.40;;;0.40;;
6259;SDS011;3163;51.516;4.000;2022-07-06T02:42:01;0.60;;;0.60;;
6259;SDS011;3163;51.516;4.000;2022-07-06T02:44:27;1.40;;;0.50;;
6259;SDS011;3163;51.516;4.000;2022-07-06T02:46:53;0.67;;;0.40;;
6259;SDS011;3163;51.516;4.000;2022-07-06T02:49:19;0.50;;;0.50;;
6259;SDS011;3163;51.516;4.000;2022-07-06T02:51:45;0.67;;;0.60;;
6259;SDS011;3163;51.516;4.000;2022-07-06T02:54:11;0.33;;;0.33;;
6259;SDS011;3163;51.516;4.000;2022-07-06T02:56:37;0.77;;;0.70;;
6259;SDS011;3163;51.516;4.000;2022-07-06T02:59:03;0.40;;;0.40;;
6259;SDS011;3163;51.516;4.000;2022-07-06T03:01:28;0.57;;;0.57;;
6259;SDS011;3163;51.516;4.000;2022-07-06T03:03:54;0.50;;;0.50;;
6259;SDS011;3163;51.516;4.000;2022-07-06T03:06:20;0.30;;;0.30;;
6259;SDS011;3163;51.516;4.000;2022-07-06T03:08:46;0.50;;;0.50;;
6259;SDS011;3163;51.516;4.000;2022-07-06T03:11:12;0.80;;;0.73;;
6259;SDS011;3163;51.516;4.000;2022-07-06T03:13:38;0.73;;;0.40;;
6259;SDS011;3163;51.516;4.000;2022-07-06T03:16:04;0.40;;;0.40;;
6259;SDS011;3163;51.516;4.000;2022-07-06T03:18:30;0.40;;;0.40;;
6259;SDS011;3163;51.516;4.000;2022-07-06T03:20:56;0.33;;;0.33;;
6259;SDS011;3163;51.516;4.000;2022-07-06T03:23:22;0.97;;;0.40;;
6259;SDS011;3163;51.516;4.000;2022-07-06T03:25:48;0.53;;;0.53;;
6259;SDS011;3163;51.516;4.000;2022-07-06T03:28:14;0.50;;;0.50;;
6259;SDS011;3163;51.516;4.000;2022-07-06T03:30:40;0.40;;;0.40;;
6259;SDS011;3163;51.516;4.000;2022-07-06T03:33:06;0.97;;;0.60;;
6259;SDS011;3163;51.516;4.000;2022-07-06T03:35:32;0.63;;;0.50;;
6259;SDS011;3163;51.516;4.000;2022-07-06T03:37:58;0.40;;;0.40;;
6259;SDS011;3163;51.516;4.000;2022-07-06T03:40:24;0.67;;;0.40;;
6259;SDS011;3163;51.516;4.000;2022-07-06T03:42:50;0.50;;;0.50;;
6259;SDS011;3163;51.516;4.000;2022-07-06T03:45:16;1.30;;;0.50;;
6259;SDS011;3163;51.516;4.000;2022-07-06T03:47:42;0.50;;;0.50;;
6259;SDS011;3163;51.516;4.000;2022-07-06T03:50:08;0.40;;;0.40;;
6259;SDS011;3163;51.516;4.000;2022-07-06T03:52:34;0.60;;;0.50;;
6259;SDS011;3163;51.516;4.000;2022-07-06T03:55:04;1.58;;;0.63;;
6259;SDS011;3163;51.516;4.000;2022-07-06T03:57:30;1.43;;;0.60;;
6259;SDS011;3163;51.516;4.000;2022-07-06T03:59:56;0.73;;;0.50;;
6259;SDS011;3163;51.516;4.000;2022-07-06T04:02:22;0.57;;;0.50;;
6259;SDS011;3163;51.516;4.000;2022-07-06T04:04:48;0.37;;;0.37;;
6259;SDS011;3163;51.516;4.000;2022-07-06T04:07:14;0.53;;;0.53;;
6259;SDS011;3163;51.516;4.000;2022-07-06T04:09:40;0.30;;;0.30;;
6259;SDS011;3163;51.516;4.000;2022-07-06T04:12:06;0.53;;;0.53;;
6259;SDS011;3163;51.516;4.000;2022-07-06T04:14:32;0.40;;;0.40;;
6259;SDS011;3163;51.516;4.000;2022-07-06T04:16:59;0.50;;;0.50;;
6259;SDS011;3163;51.516;4.000;2022-07-06T04:19:45;0.40;;;0.40;;
6259;SDS011;3163;51.516;4.000;2022-07-06T04:22:11;1.30;;;0.50;;
6259;SDS011;3163;51.516;4.000;2022-07-06T04:24:37;0.40;;;0.40;;
6259;SDS011;3163;51.516;4.000;2022-07-06T04:27:03;0.43;;;0.43;;
6259;SDS011;3163;51.516;4.000;2022-07-06T04:29:30;0.60;;;0.60;;
6259;SDS011;3163;51.516;4.000;2022-07-06T04:31:56;0.50;;;0.50;;
6259;SDS011;3163;51.516;4.000;2022-07-06T04:34:22;0.60;;;0.40;;
6259;SDS011;3163;51.516;4.000;2022-07-06T04:36:48;0.43;;;0.43;;
6259;SDS011;3163;51.516;4.000;2022-07-06T04:39:14;1.23;;;0.50;;
6259;SDS011;3163;51.516;4.000;2022-07-06T04:41:40;0.43;;;0.43;;
6259;SDS011;3163;51.516;4.000;2022-07-06T04:44:06;0.20;;;0.20;;
6259;SDS011;3163;51.516;4.000;2022-07-06T04:46:32;1.17;;;0.63;;
6259;SDS011;3163;51.516;4.000;2022-07-06T04:48:58;0.60;;;0.60;;
6259;SDS011;3163;51.516;4.000;2022-07-06T04:51:23;0.93;;;0.93;;
6259;SDS011;3163;51.516;4.000;2022-07-06T04:53:49;0.50;;;0.50;;
6259;SDS011;3163;51.516;4.000;2022-07-06T04:56:15;0.70;;;0.60;;
6259;SDS011;3163;51.516;4.000;2022-07-06T04:58:41;0.50;;;0.50;;
6259;SDS011;3163;51.516;4.000;2022-07-06T05:01:07;0.50;;;0.50;;
6259;SDS011;3163;51.516;4.000;2022-07-06T05:03:33;0.73;;;0.60;;
6259;SDS011;3163;51.516;4.000;2022-07-06T05:06:05;0.60;;;0.60;;
6259;SDS011;3163;51.516;4.000;2022-07-06T05:08:31;0.50;;;0.50;;
6259;SDS011;3163;51.516;4.000;2022-07-06T05:10:57;0.40;;;0.40;;
6259;SDS011;3163;51.516;4.000;2022-07-06T05:13:23;0.60;;;0.60;;
6259;SDS011;3163;51.516;4.000;2022-07-06T05:15:49;0.50;;;0.50;;
6259;SDS011;3163;51.516;4.000;2022-07-06T05:18:15;0.53;;;0.53;;
6259;SDS011;3163;51.516;4.000;2022-07-06T05:20:41;1.15;;;0.60;;
6259;SDS011;3163;51.516;4.000;2022-07-06T05:23:07;0.70;;;0.70;;
6259;SDS011;3163;51.516;4.000;2022-07-06T05:25:33;0.50;;;0.50;;
6259;SDS011;3163;51.516;4.000;2022-07-06T05:28:00;0.60;;;0.53;;
6259;SDS011;3163;51.516;4.000;2022-07-06T05:30:26;0.50;;;0.40;;
6259;SDS011;3163;51.516;4.000;2022-07-06T05:32:52;0.43;;;0.43;;
6259;SDS011;3163;51.516;4.000;2022-07-06T05:35:18;0.63;;;0.63;;
6259;SDS011;3163;51.516;4.000;2022-07-06T05:37:44;0.70;;;0.70;;
6259;SDS011;3163;51.516;4.000;2022-07-06T05:40:10;0.40;;;0.40;;
6259;SDS011;3163;51.516;4.000;2022-07-06T05:42:36;0.83;;;0.50;;
6259;SDS011;3163;51.516;4.000;2022-07-06T05:45:02;0.50;;;0.50;;
6259;SDS011;3163;51.516;4.000;2022-07-06T05:47:30;0.87;;;0.70;;
6259;SDS011;3163;51.516;4.000;2022-07-06T05:50:15;1.20;;;0.80;;
6259;SDS011;3163;51.516;4.000;2022-07-06T05:52:43;0.40;;;0.40;;
6259;SDS011;3163;51.516;4.000;2022-07-06T05:55:10;1.33;;;0.60;;
6259;SDS011;3163;51.516;4.000;2022-07-06T05:57:37;0.50;;;0.50;;
6259;SDS011;3163;51.516;4.000;2022-07-06T06:00:04;0.67;;;0.50;;
6259;SDS011;3163;51.516;4.000;2022-07-06T06:02:39;0.40;;;0.40;;
6259;SDS011;3163;51.516;4.000;2022-07-06T06:05:09;1.17;;;0.50;;
6259;SDS011;3163;51.516;4.000;2022-07-06T06:07:36;0.60;;;0.60;;
6259;SDS011;3163;51.516;4.000;2022-07-06T06:10:08;0.67;;;0.47;;
6259;SDS011;3163;51.516;4.000;2022-07-06T06:12:34;0.63;;;0.63;;
6259;SDS011;3163;51.516;4.000;2022-07-06T06:15:00;0.60;;;0.60;;
6259;SDS011;3163;51.516;4.000;2022-07-06T06:17:27;3.07;;;0.60;;
6259;SDS011;3163;51.516;4.000;2022-07-06T06:19:53;0.57;;;0.57;;
6259;SDS011;3163;51.516;4.000;2022-07-06T06:22:19;0.50;;;0.50;;
6259;SDS011;3163;51.516;4.000;2022-07-06T06:24:45;0.40;;;0.40;;
6259;SDS011;3163;51.516;4.000;2022-07-06T06:27:11;0.90;;;0.77;;
6259;SDS011;3163;51.516;4.000;2022-07-06T06:29:37;0.47;;;0.47;;
6259;SDS011;3163;51.516;4.000;2022-07-06T06:32:03;1.57;;;0.50;;
6259;SDS011;3163;51.516;4.000;2022-07-06T06:34:30;1.70;;;0.60;;
6259;SDS011;3163;51.516;4.000;2022-07-06T06:36:56;4.55;;;0.60;;
6259;SDS011;3163;51.516;4.000;2022-07-06T06:39:22;0.67;;;0.60;;
6259;SDS011;3163;51.516;4.000;2022-07-06T06:41:48;0.83;;;0.83;;
6259;SDS011;3163;51.516;4.000;2022-07-06T06:44:14;0.50;;;0.50;;
6259;SDS011;3163;51.516;4.000;2022-07-06T06:46:40;0.57;;;0.50;;
6259;SDS011;3163;51.516;4.000;2022-07-06T06:49:06;0.60;;;0.60;;
6259;SDS011;3163;51.516;4.000;2022-07-06T06:51:33;0.50;;;0.50;;
6259;SDS011;3163;51.516;4.000;2022-07-06T06:53:59;0.70;;;0.70;;
6259;SDS011;3163;51.516;4.000;2022-07-06T06:56:25;0.90;;;0.70;;
6259;SDS011;3163;51.516;4.000;2022-07-06T06:58:51;0.70;;;0.70;;
6259;SDS011;3163;51.516;4.000;2022-07-06T07:01:17;0.40;;;0.40;;
6259;SDS011;3163;51.516;4.000;2022-07-06T07:03:42;2.10;;;0.60;;
6259;SDS011;3163;51.516;4.000;2022-07-06T07:06:08;0.70;;;0.70;;
6259;SDS011;3163;51.516;4.000;2022-07-06T07:08:34;1.40;;;0.43;;
6259;SDS011;3163;51.516;4.000;2022-07-06T07:11:00;0.33;;;0.33;;
6259;SDS011;3163;51.516;4.000;2022-07-06T07:13:26;1.10;;;0.67;;
6259;SDS011;3163;51.516;4.000;2022-07-06T07:15:52;3.13;;;0.67;;
6259;SDS011;3163;51.516;4.000;2022-07-06T07:18:18;1.30;;;0.60;;
6259;SDS011;3163;51.516;4.000;2022-07-06T07:20:44;0.50;;;0.50;;
6259;SDS011;3163;51.516;4.000;2022-07-06T07:23:10;0.30;;;0.30;;
6259;SDS011;3163;51.516;4.000;2022-07-06T07:25:36;1.13;;;0.30;;
6259;SDS011;3163;51.516;4.000;2022-07-06T07:28:03;0.53;;;0.53;;
6259;SDS011;3163;51.516;4.000;2022-07-06T07:30:30;0.50;;;0.50;;
6259;SDS011;3163;51.516;4.000;2022-07-06T07:32:56;0.40;;;0.40;;
6259;SDS011;3163;51.516;4.000;2022-07-06T07:35:22;0.70;;;0.50;;
6259;SDS011;3163;51.516;4.000;2022-07-06T07:37:48;0.30;;;0.30;;
6259;SDS011;3163;51.516;4.000;2022-07-06T07:40:14;0.73;;;0.50;;
6259;SDS011;3163;51.516;4.000;2022-07-06T07:42:40;0.85;;;0.55;;
6259;SDS011;3163;51.516;4.000;2022-07-06T07:45:07;0.40;;;0.40;;
6259;SDS011;3163;51.516;4.000;2022-07-06T07:47:33;0.47;;;0.47;;
6259;SDS011;3163;51.516;4.000;2022-07-06T07:49:59;0.37;;;0.37;;
6259;SDS011;3163;51.516;4.000;2022-07-06T07:52:25;1.10;;;0.50;;
6259;SDS011;3163;51.516;4.000;2022-07-06T07:54:51;0.80;;;0.50;;
6259;SDS011;3163;51.516;4.000;2022-07-06T07:57:17;0.40;;;0.40;;
6259;SDS011;3163;51.516;4.000;2022-07-06T07:59:43;0.40;;;0.40;;
6259;SDS011;3163;51.516;4.000;2022-07-06T08:02:09;0.30;;;0.30;;
6259;SDS011;3163;51.516;4.000;2022-07-06T08:04:35;0.57;;;0.40;;
6259;SDS011;3163;51.516;4.000;2022-07-06T08:07:01;0.25;;;0.25;;
6259;SDS011;3163;51.516;4.000;2022-07-06T08:09:27;0.30;;;0.30;;
6259;SDS011;3163;51.516;4.000;2022-07-06T08:11:53;1.50;;;0.45;;
6259;SDS011;3163;51.516;4.000;2022-07-06T08:14:19;0.30;;;0.30;;
6259;SDS011;3163;51.516;4.000;2022-07-06T08:16:45;0.32;;;0.32;;
6259;SDS011;3163;51.516;4.000;2022-07-06T08:19:11;0.30;;;0.30;;
6259;SDS011;3163;51.516;4.000;2022-07-06T08:21:40;0.75;;;0.35;;
6259;SDS011;3163;51.516;4.000;2022-07-06T08:24:06;0.43;;;0.43;;
6259;SDS011;3163;51.516;4.000;2022-07-06T08:26:32;0.30;;;0.30;;
6259;SDS011;3163;51.516;4.000;2022-07-06T08:28:58;2.00;;;0.40;;
6259;SDS011;3163;51.516;4.000;2022-07-06T08:31:24;0.40;;;0.40;;
6259;SDS011;3163;51.516;4.000;2022-07-06T08:33:52;0.30;;;0.30;;
6259;SDS011;3163;51.516;4.000;2022-07-06T08:36:18;0.50;;;0.20;;
6259;SDS011;3163;51.516;4.000;2022-07-06T08:38:44;0.25;;;0.25;;
6259;SDS011;3163;51.516;4.000;2022-07-06T08:41:10;1.35;;;0.40;;
6259;SDS011;3163;51.516;4.000;2022-07-06T08:43:36;0.30;;;0.30;;
6259;SDS011;3163;51.516;4.000;2022-07-06T08:46:02;0.30;;;0.30;;
6259;SDS011;3163;51.516;4.000;2022-07-06T08:48:28;0.30;;;0.30;;
6259;SDS011;3163;51.516;4.000;2022-07-06T08:50:57;0.90;;;0.30;;
6259;SDS011;3163;51.516;4.000;2022-07-06T08:53:23;0.22;;;0.22;;
6259;SDS011;3163;51.516;4.000;2022-07-06T08:55:49;0.30;;;0.30;;
6259;SDS011;3163;51.516;4.000;2022-07-06T08:58:15;0.50;;;0.30;;
6259;SDS011;3163;51.516;4.000;2022-07-06T09:00:41;0.30;;;0.30;;
6259;SDS011;3163;51.516;4.000;2022-07-06T09:03:08;0.32;;;0.30;;
6259;SDS011;3163;51.516;4.000;2022-07-06T09:05:37;0.93;;;0.30;;
6259;SDS011;3163;51.516;4.000;2022-07-06T09:08:03;0.30;;;0.15;;
6259;SDS011;3163;51.516;4.000;2022-07-06T09:10:29;0.30;;;0.30;;
6259;SDS011;3163;51.516;4.000;2022-07-06T09:13:01;0.20;;;0.20;;
6259;SDS011;3163;51.516;4.000;2022-07-06T09:15:28;0.50;;;0.38;;
6259;SDS011;3163;51.516;4.000;2022-07-06T09:17:55;1.15;;;0.45;;
6259;SDS011;3163;51.516;4.000;2022-07-06T09:20:21;0.20;;;0.20;;
6259;SDS011;3163;51.516;4.000;2022-07-06T09:22:47;0.43;;;0.43;;
6259;SDS011;3163;51.516;4.000;2022-07-06T09:25:14;0.25;;;0.20;;
6259;SDS011;3163;51.516;4.000;2022-07-06T09:27:42;0.20;;;0.20;;
6259;SDS011;3163;51.516;4.000;2022-07-06T09:30:08;0.10;;;0.10;;
6259;SDS011;3163;51.516;4.000;2022-07-06T09:32:42;0.30;;;0.30;;
6259;SDS011;3163;51.516;4.000;2022-07-06T09:35:18;0.30;;;0.30;;
6259;SDS011;3163;51.516;4.000;2022-07-06T09:37:45;0.20;;;0.20;;
6259;SDS011;3163;51.516;4.000;2022-07-06T09:40:17;1.30;;;0.32;;
6259;SDS011;3163;51.516;4.000;2022-07-06T09:42:44;1.23;;;0.30;;
6259;SDS011;3163;51.516;4.000;2022-07-06T09:45:10;0.20;;;0.20;;
6259;SDS011;3163;51.516;4.000;2022-07-06T09:47:36;0.20;;;0.17;;
6259;SDS011;3163;51.516;4.000;2022-07-06T09:50:04;0.10;;;0.10;;
6259;SDS011;3163;51.516;4.000;2022-07-06T09:52:33;0.30;;;0.30;;
6259;SDS011;3163;51.516;4.000;2022-07-06T09:54:59;1.63;;;0.73;;
6259;SDS011;3163;51.516;4.000;2022-07-06T09:57:25;0.63;;;0.40;;
6259;SDS011;3163;51.516;4.000;2022-07-06T09:59:51;0.60;;;0.60;;
6259;SDS011;3163;51.516;4.000;2022-07-06T10:02:17;0.50;;;0.50;;
6259;SDS011;3163;51.516;4.000;2022-07-06T10:04:45;0.95;;;0.50;;
6259;SDS011;3163;51.516;4.000;2022-07-06T10:07:12;0.75;;;0.50;;
6259;SDS011;3163;51.516;4.000;2022-07-06T10:09:38;0.65;;;0.60;;
6259;SDS011;3163;51.516;4.000;2022-07-06T10:12:06;0.50;;;0.50;;
6259;SDS011;3163;51.516;4.000;2022-07-06T10:14:35;0.40;;;0.38;;
6259;SDS011;3163;51.516;4.000;2022-07-06T10:17:02;0.30;;;0.30;;
6259;SDS011;3163;51.516;4.000;2022-07-06T10:19:30;0.40;;;0.40;;
6259;SDS011;3163;51.516;4.000;2022-07-06T10:22:00;0.35;;;0.35;;
6259;SDS011;3163;51.516;4.000;2022-07-06T10:24:28;1.65;;;0.40;;
6259;SDS011;3163;51.516;4.000;2022-07-06T10:26:55;1.33;;;0.55;;
6259;SDS011;3163;51.516;4.000;2022-07-06T10:29:21;1.00;;;0.50;;
6259;SDS011;3163;51.516;4.000;2022-07-06T10:31:47;1.55;;;0.55;;
6259;SDS011;3163;51.516;4.000;2022-07-06T10:34:14;2.45;;;0.40;;
6259;SDS011;3163;51.516;4.000;2022-07-06T10:36:42;1.17;;;0.40;;
6259;SDS011;3163;51.516;4.000;2022-07-06T10:39:08;0.50;;;0.50;;
6259;SDS011;3163;51.516;4.000;2022-07-06T10:41:53;0.43;;;0.38;;
6259;SDS011;3163;51.516;4.000;2022-07-06T10:44:20;0.85;;;0.43;;
6259;SDS011;3163;51.516;4.000;2022-07-06T10:46:50;0.80;;;0.60;;
6259;SDS011;3163;51.516;4.000;2022-07-06T10:49:16;0.40;;;0.40;;
6259;SDS011;3163;51.516;4.000;2022-07-06T10:51:43;0.75;;;0.38;;
6259;SDS011;3163;51.516;4.000;2022-07-06T10:54:09;1.10;;;0.50;;
6259;SDS011;3163;51.516;4.000;2022-07-06T10:56:45;0.95;;;0.35;;
6259;SDS011;3163;51.516;4.000;2022-07-06T10:59:13;2.90;;;0.40;;
6259;SDS011;3163;51.516;4.000;2022-07-06T11:01:39;2.50;;;0.50;;
6259;SDS011;3163;51.516;4.000;2022-07-06T11:04:06;0.68;;;0.50;;
6259;SDS011;3163;51.516;4.000;2022-07-06T11:06:33;1.70;;;1.15;;
6259;SDS011;3163;51.516;4.000;2022-07-06T11:11:26;1.02;;;0.50;;
6259;SDS011;3163;51.516;4.000;2022-07-06T11:14:06;2.40;;;0.82;;
6259;SDS011;3163;51.516;4.000;2022-07-06T11:19:02;3.10;;;1.17;;
6259;SDS011;3163;51.516;4.000;2022-07-06T11:21:45;0.50;;;0.40;;
6259;SDS011;3163;51.516;4.000;2022-07-06T11:24:33;0.50;;;0.50;;
6259;SDS011;3163;51.516;4.000;2022-07-06T11:26:58;1.30;;;0.60;;
6259;SDS011;3163;51.516;4.000;2022-07-06T11:29:25;3.45;;;1.05;;
6259;SDS011;3163;51.516;4.000;2022-07-06T11:31:56;0.90;;;0.63;;
6259;SDS011;3163;51.516;4.000;2022-07-06T11:34:23;1.25;;;0.38;;
6259;SDS011;3163;51.516;4.000;2022-07-06T11:39:29;1.08;;;0.90;;
6259;SDS011;3163;51.516;4.000;2022-07-06T11:41:55;0.28;;;0.28;;
6259;SDS011;3163;51.516;4.000;2022-07-06T11:44:21;1.17;;;0.50;;
6259;SDS011;3163;51.516;4.000;2022-07-06T11:46:47;0.60;;;0.60;;
6259;SDS011;3163;51.516;4.000;2022-07-06T11:49:13;4.78;;;1.30;;
6259;SDS011;3163;51.516;4.000;2022-07-06T11:51:40;4.03;;;1.23;;
6259;SDS011;3163;51.516;4.000;2022-07-06T11:54:11;2.25;;;1.17;;
6259;SDS011;3163;51.516;4.000;2022-07-06T11:56:37;2.47;;;1.20;;
6259;SDS011;3163;51.516;4.000;2022-07-06T11:59:04;1.08;;;1.00;;
6259;SDS011;3163;51.516;4.000;2022-07-06T12:01:30;3.78;;;1.08;;
6259;SDS011;3163;51.516;4.000;2022-07-06T12:03:57;2.08;;;0.85;;
6259;SDS011;3163;51.516;4.000;2022-07-06T12:06:24;1.25;;;0.70;;
6259;SDS011;3163;51.516;4.000;2022-07-06T12:08:52;1.30;;;0.80;;
6259;SDS011;3163;51.516;4.000;2022-07-06T12:11:19;1.90;;;0.60;;
6259;SDS011;3163;51.516;4.000;2022-07-06T12:13:45;1.45;;;0.73;;
6259;SDS011;3163;51.516;4.000;2022-07-06T12:16:11;0.88;;;0.80;;
6259;SDS011;3163;51.516;4.000;2022-07-06T12:18:38;1.15;;;0.60;;
6259;SDS011;3163;51.516;4.000;2022-07-06T12:21:08;2.15;;;0.60;;
6259;SDS011;3163;51.516;4.000;2022-07-06T12:23:41;0.82;;;0.82;;
6259;SDS011;3163;51.516;4.000;2022-07-06T12:26:07;1.58;;;0.80;;
6259;SDS011;3163;51.516;4.000;2022-07-06T12:28:34;1.60;;;0.68;;
6259;SDS011;3163;51.516;4.000;2022-07-06T12:31:00;4.70;;;0.80;;
6259;SDS011;3163;51.516;4.000;2022-07-06T12:33:26;4.13;;;0.93;;
6259;SDS011;3163;51.516;4.000;2022-07-06T12:35:53;1.33;;;0.90;;
6259;SDS011;3163;51.516;4.000;2022-07-06T12:38:25;3.45;;;0.82;;
6259;SDS011;3163;51.516;4.000;2022-07-06T12:40:51;2.65;;;0.88;;
6259;SDS011;3163;51.516;4.000;2022-07-06T12:48:51;3.00;;;0.77;;
6259;SDS011;3163;51.516;4.000;2022-07-06T12:51:17;2.30;;;0.70;;
6259;SDS011;3163;51.516;4.000;2022-07-06T12:53:43;0.70;;;0.57;;
6259;SDS011;3163;51.516;4.000;2022-07-06T12:56:09;1.42;;;0.73;;
6259;SDS011;3163;51.516;4.000;2022-07-06T12:58:35;1.00;;;0.60;;
6259;SDS011;3163;51.516;4.000;2022-07-06T13:01:01;1.90;;;0.80;;
6259;SDS011;3163;51.516;4.000;2022-07-06T13:03:27;0.73;;;0.70;;
6259;SDS011;3163;51.516;4.000;2022-07-06T13:05:53;4.20;;;0.90;;
6259;SDS011;3163;51.516;4.000;2022-07-06T13:08:19;1.10;;;0.80;;
6259;SDS011;3163;51.516;4.000;2022-07-06T13:10:45;2.97;;;0.90;;
6259;SDS011;3163;51.516;4.000;2022-07-06T13:13:12;1.77;;;0.73;;
6259;SDS011;3163;51.516;4.000;2022-07-06T13:15:40;1.40;;;0.82;;
6259;SDS011;3163;51.516;4.000;2022-07-06T13:18:06;2.55;;;1.20;;
6259;SDS011;3163;51.516;4.000;2022-07-06T13:20:33;3.00;;;0.90;;
6259;SDS011;3163;51.516;4.000;2022-07-06T13:22:59;2.15;;;0.90;;
6259;SDS011;3163;51.516;4.000;2022-07-06T13:25:25;2.50;;;1.17;;
6259;SDS011;3163;51.516;4.000;2022-07-06T13:27:51;1.98;;;1.13;;
6259;SDS011;3163;51.516;4.000;2022-07-06T13:30:17;1.23;;;1.00;;
6259;SDS011;3163;51.516;4.000;2022-07-06T13:32:43;1.73;;;1.15;;
6259;SDS011;3163;51.516;4.000;2022-07-06T13:35:09;2.50;;;0.73;;
6259;SDS011;3163;51.516;4.000;2022-07-06T13:37:35;1.13;;;0.90;;
6259;SDS011;3163;51.516;4.000;2022-07-06T13:40:01;1.05;;;0.88;;
6259;SDS011;3163;51.516;4.000;2022-07-06T13:42:27;2.58;;;1.10;;
6259;SDS011;3163;51.516;4.000;2022-07-06T13:44:53;3.90;;;1.20;;
6259;SDS011;3163;51.516;4.000;2022-07-06T13:47:19;0.80;;;0.80;;
6259;SDS011;3163;51.516;4.000;2022-07-06T13:49:45;1.15;;;0.70;;
6259;SDS011;3163;51.516;4.000;2022-07-06T13:52:12;1.60;;;0.80;;
6259;SDS011;3163;51.516;4.000;2022-07-06T13:54:38;3.50;;;1.40;;
6259;SDS011;3163;51.516;4.000;2022-07-06T13:57:04;3.15;;;1.33;;
6259;SDS011;3163;51.516;4.000;2022-07-06T13:59:31;4.18;;;1.15;;
6259;SDS011;3163;51.516;4.000;2022-07-06T14:01:58;1.55;;;0.70;;
6259;SDS011;3163;51.516;4.000;2022-07-06T14:04:24;4.07;;;1.30;;
6259;SDS011;3163;51.516;4.000;2022-07-06T14:06:50;1.02;;;0.88;;
6259;SDS011;3163;51.516;4.000;2022-07-06T14:09:16;2.78;;;1.02;;
6259;SDS011;3163;51.516;4.000;2022-07-06T14:11:42;1.35;;;0.90;;
6259;SDS011;3163;51.516;4.000;2022-07-06T14:14:08;3.40;;;1.10;;
6259;SDS011;3163;51.516;4.000;2022-07-06T14:16:34;2.25;;;0.95;;
6259;SDS011;3163;51.516;4.000;2022-07-06T14:19:00;1.90;;;1.10;;
6259;SDS011;3163;51.516;4.000;2022-07-06T14:21:27;1.90;;;1.75;;
6259;SDS011;3163;51.516;4.000;2022-07-06T14:23:53;2.53;;;1.40;;
6259;SDS011;3163;51.516;4.000;2022-07-06T14:26:19;0.90;;;0.90;;
6259;SDS011;3163;51.516;4.000;2022-07-06T14:28:45;1.30;;;0.65;;
6259;SDS011;3163;51.516;4.000;2022-07-06T14:31:11;2.28;;;0.93;;
6259;SDS011;3163;51.516;4.000;2022-07-06T14:33:37;1.38;;;0.80;;
6259;SDS011;3163;51.516;4.000;2022-07-06T14:36:03;2.42;;;0.90;;
6259;SDS011;3163;51.516;4.000;2022-07-06T14:38:29;2.20;;;1.15;;
6259;SDS011;3163;51.516;4.000;2022-07-06T14:40:55;3.08;;;1.27;;
6259;SDS011;3163;51.516;4.000;2022-07-06T14:43:21;2.33;;;1.25;;
6259;SDS011;3163;51.516;4.000;2022-07-06T14:45:47;1.30;;;0.82;;
6259;SDS011;3163;51.516;4.000;2022-07-06T14:48:13;3.30;;;1.70;;
6259;SDS011;3163;51.516;4.000;2022-07-06T14:50:39;1.73;;;1.00;;
6259;SDS011;3163;51.516;4.000;2022-07-06T14:53:05;3.42;;;1.15;;
6259;SDS011;3163;51.516;4.000;2022-07-06T14:55:32;1.83;;;1.10;;
6259;SDS011;3163;51.516;4.000;2022-07-06T14:57:58;2.42;;;1.20;;
6259;SDS011;3163;51.516;4.000;2022-07-06T15:00:24;2.58;;;1.40;;
6259;SDS011;3163;51.516;4.000;2022-07-06T15:02:50;1.52;;;1.23;;
6259;SDS011;3163;51.516;4.000;2022-07-06T15:05:16;1.98;;;1.35;;
6259;SDS011;3163;51.516;4.000;2022-07-06T15:07:42;2.42;;;1.10;;
6259;SDS011;3163;51.516;4.000;2022-07-06T15:10:08;1.00;;;0.80;;
6259;SDS011;3163;51.516;4.000;2022-07-06T15:12:34;1.97;;;1.10;;
6259;SDS011;3163;51.516;4.000;2022-07-06T15:15:01;1.35;;;0.80;;
6259;SDS011;3163;51.516;4.000;2022-07-06T15:17:27;2.38;;;0.90;;
6259;SDS011;3163;51.516;4.000;2022-07-06T15:19:54;0.80;;;0.80;;
6259;SDS011;3163;51.516;4.000;2022-07-06T15:22:20;3.22;;;0.95;;
6259;SDS011;3163;51.516;4.000;2022-07-06T15:24:46;1.58;;;0.95;;